createdAt,value
2023-04-16T00:00:13.899Z,6.2773
2023-04-16T00:01:14.507Z,6.2853
2023-04-16T00:02:15.161Z,6.2620
2023-04-16T00:03:15.956Z,6.2502
2023-04-16T00:04:17.101Z,6.2594
2023-04-16T00:05:18.113Z,6.2328
2023-04-16T00:06:18.687Z,6.2200
2023-04-16T00:07:19.257Z,6.2025
2023-04-16T00:08:19.885Z,6.2313
2023-04-16T00:09:20.465Z,6.2512
2023-04-16T00:10:20.962Z,6.2424
2023-04-16T00:11:21.573Z,6.2748
2023-04-16T00:12:22.165Z,6.2393
2023-04-16T00:13:22.753Z,6.2206
2023-04-16T00:14:23.278Z,6.2239
2023-04-16T00:15:23.807Z,6.2414
2023-04-16T00:16:24.536Z,6.2627
2023-04-16T00:17:25.131Z,6.3143
2023-04-16T00:18:25.703Z,6.3210
2023-04-16T00:19:26.231Z,6.2577
2023-04-16T00:20:26.835Z,6.2667
2023-04-16T00:21:27.416Z,6.2379
2023-04-16T00:22:28.016Z,6.2418
2023-04-16T00:23:28.580Z,6.2406
2023-04-16T00:24:29.252Z,6.2856
2023-04-16T00:25:29.869Z,6.2737
2023-04-16T00:26:30.469Z,6.2502
2023-04-16T00:27:31.060Z,6.2462
2023-04-16T00:28:31.632Z,6.2164
2023-04-16T00:29:32.229Z,6.2311
2023-04-16T00:30:32.750Z,6.2193
2023-04-16T00:31:33.232Z,6.2036
2023-04-16T00:32:33.833Z,6.2430
2023-04-16T00:33:34.392Z,6.2275
2023-04-16T00:34:34.916Z,6.2184
2023-04-16T00:35:35.470Z,6.2484
2023-04-16T00:36:35.965Z,6.2366
2023-04-16T00:37:36.573Z,6.2203
2023-04-16T00:38:37.077Z,6.2060
2023-04-16T00:39:37.673Z,6.2084
2023-04-16T00:40:38.275Z,6.1960
2023-04-16T00:41:38.782Z,6.2127
2023-04-16T00:42:39.424Z,6.1947
2023-04-16T00:43:40.232Z,6.1850
2023-04-16T00:44:40.805Z,6.1823
2023-04-16T00:45:41.350Z,6.2043
2023-04-16T00:46:41.981Z,6.2247
2023-04-16T00:47:42.668Z,6.2498
2023-04-16T00:48:43.266Z,6.2220
2023-04-16T00:49:43.827Z,6.1962
2023-04-16T00:50:44.392Z,6.1849
2023-04-16T00:51:44.886Z,6.1867
2023-04-16T00:52:45.508Z,6.2016
2023-04-16T00:53:46.060Z,6.2030
2023-04-16T00:54:46.604Z,6.1845
2023-04-16T00:55:47.167Z,6.1938
2023-04-16T00:56:47.804Z,6.2030
2023-04-16T00:57:48.345Z,6.2152
2023-04-16T00:58:48.965Z,6.2177
2023-04-16T00:59:49.556Z,6.1940
2023-04-16T01:00:50.117Z,6.2092
2023-04-16T01:01:50.969Z,6.2275
2023-04-16T01:02:51.815Z,6.2169
2023-04-16T01:03:52.713Z,6.1989
2023-04-16T01:04:53.597Z,6.1907
2023-04-16T01:05:54.147Z,6.2140
2023-04-16T01:06:54.694Z,6.2145
2023-04-16T01:07:55.308Z,6.2076
2023-04-16T01:08:55.853Z,6.1880
2023-04-16T01:09:56.460Z,6.2117
2023-04-16T01:10:56.998Z,6.2240
2023-04-16T01:11:57.601Z,6.2075
2023-04-16T01:12:58.266Z,6.2016
2023-04-16T01:13:58.815Z,6.2052
2023-04-16T01:14:59.351Z,6.2188
2023-04-16T01:16:00.018Z,6.2275
2023-04-16T01:17:00.635Z,6.2304
2023-04-16T01:18:01.249Z,6.2103
2023-04-16T01:19:01.836Z,6.2069
2023-04-16T01:20:02.422Z,6.2036
2023-04-16T01:21:03.041Z,6.2297
2023-04-16T01:22:03.573Z,6.2104
2023-04-16T01:23:04.161Z,6.2147
2023-04-16T01:24:04.705Z,6.2170
2023-04-16T01:25:05.288Z,6.2068
2023-04-16T01:26:05.845Z,6.2073
2023-04-16T01:27:06.420Z,6.2055
2023-04-16T01:28:06.973Z,6.1961
2023-04-16T01:29:07.832Z,6.2120
2023-04-16T01:30:08.574Z,6.2034
2023-04-16T01:31:09.132Z,6.2140
2023-04-16T01:32:09.699Z,6.1872
2023-04-16T01:33:10.275Z,6.1823
2023-04-16T01:34:10.822Z,6.1961
2023-04-16T01:35:11.335Z,6.1801
2023-04-16T01:36:11.939Z,6.1684
2023-04-16T01:37:12.489Z,6.1897
2023-04-16T01:38:13.096Z,6.2096
2023-04-16T01:39:13.668Z,6.1753
2023-04-16T01:40:14.222Z,6.1751
2023-04-16T01:41:14.714Z,6.1810
2023-04-16T01:42:15.258Z,6.1820
2023-04-16T01:43:15.881Z,6.1691
2023-04-16T01:44:16.432Z,6.1699
2023-04-16T01:45:16.973Z,6.1636
2023-04-16T01:46:17.520Z,6.1529
2023-04-16T01:47:18.076Z,6.1511
2023-04-16T01:48:18.645Z,6.1731
2023-04-16T01:49:19.197Z,6.1548
2023-04-16T01:50:19.747Z,6.1774
2023-04-16T01:51:20.353Z,6.1760
2023-04-16T01:52:20.901Z,6.1659
2023-04-16T01:53:21.518Z,6.1402
2023-04-16T01:54:22.087Z,6.1351
2023-04-16T01:55:22.629Z,6.1668
2023-04-16T01:56:23.220Z,6.1656
2023-04-16T01:57:23.768Z,6.1394
2023-04-16T01:58:24.427Z,6.1405
2023-04-16T01:59:25.014Z,6.1351
2023-04-16T02:00:25.582Z,6.1394
2023-04-16T02:01:26.176Z,6.1312
2023-04-16T02:02:26.962Z,6.1275
2023-04-16T02:03:27.739Z,6.1232
2023-04-16T02:04:28.398Z,6.1193
2023-04-16T02:05:28.955Z,6.1351
2023-04-16T02:06:29.607Z,6.1330
2023-04-16T02:07:30.186Z,6.1337
2023-04-16T02:08:30.872Z,6.1210
2023-04-16T02:09:31.477Z,6.1153
2023-04-16T02:10:32.086Z,6.1023
2023-04-16T02:11:32.716Z,6.1151
2023-04-16T02:12:33.332Z,6.1176
2023-04-16T02:13:33.981Z,6.1089
2023-04-16T02:14:34.561Z,6.1452
2023-04-16T02:15:35.149Z,6.1527
2023-04-16T02:16:35.974Z,6.1616
2023-04-16T02:17:36.648Z,6.1136
2023-04-16T02:18:37.262Z,6.1146
2023-04-16T02:19:37.883Z,6.0985
2023-04-16T02:20:38.542Z,6.1294
2023-04-16T02:21:39.228Z,6.1183
2023-04-16T02:22:39.791Z,6.1462
2023-04-16T02:23:40.497Z,6.1295
2023-04-16T02:24:41.214Z,6.1201
2023-04-16T02:25:41.834Z,6.0987
2023-04-16T02:26:42.444Z,6.0945
2023-04-16T02:27:43.177Z,6.0958
2023-04-16T02:28:43.853Z,6.0984
2023-04-16T02:29:44.485Z,6.1005
2023-04-16T02:30:45.120Z,6.0858
2023-04-16T02:31:45.811Z,6.0951
2023-04-16T02:32:46.550Z,6.0943
2023-04-16T02:33:47.096Z,6.1022
2023-04-16T02:34:47.874Z,6.1063
2023-04-16T02:35:48.443Z,6.1081
2023-04-16T02:36:49.153Z,6.1376
2023-04-16T02:37:49.753Z,6.1238
2023-04-16T02:38:50.427Z,6.1351
2023-04-16T02:39:51.138Z,6.1355
2023-04-16T02:40:51.766Z,6.1246
2023-04-16T02:41:52.374Z,6.1212
2023-04-16T02:42:52.939Z,6.1129
2023-04-16T02:43:53.509Z,6.1130
2023-04-16T02:44:54.220Z,6.0875
2023-04-16T02:45:55.344Z,6.0949
2023-04-16T02:46:55.969Z,6.1164
2023-04-16T02:47:56.626Z,6.1116
2023-04-16T02:48:57.337Z,6.0827
2023-04-16T02:49:57.953Z,6.0892
2023-04-16T02:50:58.672Z,6.0642
2023-04-16T02:51:59.320Z,6.0455
2023-04-16T02:52:59.936Z,6.0467
2023-04-16T02:54:00.596Z,6.0497
2023-04-16T02:55:01.205Z,6.0416
2023-04-16T02:56:01.886Z,6.0166
2023-04-16T02:57:02.573Z,6.0253
2023-04-16T02:58:03.178Z,6.0209
2023-04-16T02:59:03.842Z,6.0287
2023-04-16T03:00:04.470Z,6.0443
2023-04-16T03:01:05.161Z,6.0625
2023-04-16T03:02:05.798Z,6.0430
2023-04-16T03:03:06.398Z,6.0178
2023-04-16T03:04:07.073Z,6.0291
2023-04-16T03:05:07.712Z,6.0277
2023-04-16T03:06:08.399Z,6.0285
2023-04-16T03:07:09.005Z,6.0379
2023-04-16T03:08:09.604Z,6.0562
2023-04-16T03:09:10.923Z,6.0467
2023-04-16T03:10:11.898Z,5.9969
2023-04-16T03:11:12.523Z,6.0111
2023-04-16T03:12:13.134Z,6.0191
2023-04-16T03:13:13.755Z,6.0129
2023-04-16T03:14:14.367Z,5.9832
2023-04-16T03:15:15.009Z,5.9752
2023-04-16T03:16:15.794Z,5.9878
2023-04-16T03:17:16.570Z,6.0198
2023-04-16T03:18:17.193Z,6.0118
2023-04-16T03:19:17.832Z,6.0244
2023-04-16T03:20:18.464Z,5.9979
2023-04-16T03:21:19.046Z,5.9695
2023-04-16T03:22:20.157Z,5.9746
2023-04-16T03:23:21.022Z,5.9601
2023-04-16T03:24:21.625Z,6.0107
2023-04-16T03:25:22.292Z,5.9981
2023-04-16T03:26:22.874Z,5.9911
2023-04-16T03:27:23.549Z,5.9888
2023-04-16T03:28:24.162Z,5.9795
2023-04-16T03:29:24.777Z,5.9727
2023-04-16T03:30:25.411Z,5.9746
2023-04-16T03:31:26.089Z,5.9618
2023-04-16T03:32:26.772Z,5.9570
2023-04-16T03:33:27.418Z,5.9246
2023-04-16T03:34:28.121Z,5.9192
2023-04-16T03:35:28.758Z,5.9345
2023-04-16T03:36:29.402Z,5.9600
2023-04-16T03:37:29.998Z,5.9691
2023-04-16T03:38:30.584Z,5.9561
2023-04-16T03:39:31.217Z,5.9587
2023-04-16T03:40:31.840Z,5.9347
2023-04-16T03:41:32.487Z,5.9530
2023-04-16T03:42:33.070Z,5.9329
2023-04-16T03:43:33.682Z,5.9404
2023-04-16T03:44:34.267Z,5.9167
2023-04-16T03:45:34.864Z,5.9377
2023-04-16T03:46:35.481Z,5.9431
2023-04-16T03:47:36.147Z,5.9305
2023-04-16T03:48:36.774Z,5.9314
2023-04-16T03:49:37.488Z,5.9496
2023-04-16T03:50:38.116Z,5.9235
2023-04-16T03:51:38.696Z,5.9408
2023-04-16T03:52:39.323Z,5.9453
2023-04-16T03:53:39.959Z,5.9365
2023-04-16T03:54:40.626Z,5.9373
2023-04-16T03:55:41.251Z,5.9297
2023-04-16T03:56:41.852Z,5.9283
2023-04-16T03:57:42.481Z,5.9298
2023-04-16T03:58:43.118Z,5.9323
2023-04-16T03:59:43.780Z,5.9301
2023-04-16T04:00:44.431Z,5.9261
2023-04-16T04:01:45.058Z,5.9137
2023-04-16T04:02:45.812Z,5.9381
2023-04-16T04:03:46.740Z,5.9503
2023-04-16T04:04:47.838Z,5.9409
2023-04-16T04:05:48.528Z,5.9059
2023-04-16T04:06:49.168Z,5.9074
2023-04-16T04:07:49.747Z,5.8845
2023-04-16T04:08:50.366Z,5.8966
2023-04-16T04:09:51.045Z,5.8944
2023-04-16T04:10:51.644Z,5.9051
2023-04-16T04:11:52.331Z,5.9137
2023-04-16T04:12:52.942Z,5.9219
2023-04-16T04:13:53.587Z,5.8937
2023-04-16T04:14:54.268Z,5.8937
2023-04-16T04:15:54.907Z,5.9234
2023-04-16T04:16:55.567Z,5.9147
2023-04-16T04:17:56.249Z,5.9135
2023-04-16T04:18:56.893Z,5.9140
2023-04-16T04:20:01.251Z,5.9092
2023-04-16T04:21:00.153Z,5.9232
2023-04-16T04:22:00.785Z,5.9264
2023-04-16T04:23:01.368Z,5.9271
2023-04-16T04:24:02.051Z,5.9564
2023-04-16T04:25:02.886Z,5.9170
2023-04-16T04:26:03.527Z,5.8976
2023-04-16T04:27:04.184Z,5.9078
2023-04-16T04:28:04.898Z,5.9130
2023-04-16T04:29:05.567Z,5.9102
2023-04-16T04:30:06.218Z,5.9171
2023-04-16T04:31:06.845Z,5.9388
2023-04-16T04:32:07.596Z,5.9051
2023-04-16T04:33:08.546Z,5.9243
2023-04-16T04:34:09.185Z,5.9132
2023-04-16T04:35:09.856Z,5.9297
2023-04-16T04:36:10.519Z,5.9311
2023-04-16T04:37:11.185Z,5.9297
2023-04-16T04:38:13.180Z,5.9140
2023-04-16T04:39:12.859Z,5.9227
2023-04-16T04:40:13.556Z,5.9241
2023-04-16T04:41:14.244Z,5.8990
2023-04-16T04:42:14.839Z,5.8676
2023-04-16T04:43:15.493Z,5.8925
2023-04-16T04:44:16.172Z,5.8931
2023-04-16T04:45:16.857Z,5.8720
2023-04-16T04:46:17.524Z,5.8817
2023-04-16T04:47:18.175Z,5.8656
2023-04-16T04:48:18.893Z,5.8840
2023-04-16T04:49:19.498Z,5.8636
2023-04-16T04:50:20.190Z,5.8822
2023-04-16T04:51:20.880Z,5.8818
2023-04-16T04:52:21.473Z,5.8664
2023-04-16T04:53:22.101Z,5.8642
2023-04-16T04:54:22.678Z,5.8731
2023-04-16T04:55:23.453Z,5.8863
2023-04-16T04:56:24.105Z,5.8977
2023-04-16T04:57:24.837Z,5.8972
2023-04-16T04:58:25.413Z,5.8652
2023-04-16T04:59:26.088Z,5.8806
2023-04-16T05:00:26.744Z,5.9094
2023-04-16T05:01:27.479Z,5.9009
2023-04-16T05:02:28.175Z,5.9058
2023-04-16T05:03:28.889Z,5.9457
2023-04-16T05:04:29.546Z,5.9413
2023-04-16T05:05:30.180Z,5.9026
2023-04-16T05:06:30.946Z,5.8967
2023-04-16T05:07:31.558Z,5.8713
2023-04-16T05:08:32.186Z,5.8825
2023-04-16T05:09:32.824Z,5.9045
2023-04-16T05:10:33.420Z,5.9006
2023-04-16T05:11:34.079Z,5.9164
2023-04-16T05:12:34.671Z,5.8876
2023-04-16T05:13:35.315Z,5.8847
2023-04-16T05:14:35.964Z,5.8972
2023-04-16T05:15:36.567Z,5.9171
2023-04-16T05:16:37.344Z,5.9139
2023-04-16T05:17:37.958Z,5.8907
2023-04-16T05:18:38.596Z,5.8900
2023-04-16T05:19:39.197Z,5.8997
2023-04-16T05:20:39.836Z,5.9307
2023-04-16T05:21:40.519Z,5.9301
2023-04-16T05:22:41.169Z,5.9027
2023-04-16T05:23:41.817Z,5.9205
2023-04-16T05:24:42.472Z,5.9204
2023-04-16T05:25:43.129Z,5.9437
2023-04-16T05:26:43.833Z,5.9267
2023-04-16T05:27:44.460Z,5.9133
2023-04-16T05:28:45.064Z,5.9243
2023-04-16T05:29:45.787Z,5.8984
2023-04-16T05:30:46.410Z,5.9096
2023-04-16T05:31:47.172Z,5.9208
2023-04-16T05:32:47.824Z,5.9061
2023-04-16T05:33:48.394Z,5.9197
2023-04-16T05:34:49.073Z,5.9224
2023-04-16T05:35:49.719Z,5.9069
2023-04-16T05:36:50.439Z,5.9243
2023-04-16T05:37:51.041Z,5.9125
2023-04-16T05:38:51.743Z,5.9131
2023-04-16T05:39:52.580Z,5.9134
2023-04-16T05:40:53.238Z,5.9075
2023-04-16T05:41:53.852Z,5.9191
2023-04-16T05:42:54.639Z,5.9561
2023-04-16T05:43:55.332Z,5.9354
2023-04-16T05:44:56.038Z,5.9196
2023-04-16T05:45:56.837Z,5.9405
2023-04-16T05:46:57.538Z,5.9325
2023-04-16T05:47:58.180Z,5.9215
2023-04-16T05:48:58.832Z,5.9423
2023-04-16T05:49:59.411Z,5.9667
2023-04-16T05:51:00.053Z,5.9769
2023-04-16T05:52:00.658Z,5.9604
2023-04-16T05:53:01.345Z,5.9397
2023-04-16T05:54:02.042Z,5.9460
2023-04-16T05:55:02.646Z,5.9539
2023-04-16T05:56:03.328Z,5.9463
2023-04-16T05:57:03.949Z,5.9880
2023-04-16T05:58:04.538Z,6.0444
2023-04-16T05:59:05.237Z,5.9703
2023-04-16T06:00:05.870Z,5.9827
2023-04-16T06:01:06.477Z,5.9782
2023-04-16T06:02:07.198Z,5.9833
2023-04-16T06:03:08.030Z,6.0436
2023-04-16T06:04:08.996Z,6.1123
2023-04-16T06:05:09.702Z,6.1320
2023-04-16T06:06:10.296Z,6.1109
2023-04-16T06:07:10.933Z,6.0784
2023-04-16T06:08:11.607Z,6.0541
2023-04-16T06:09:12.317Z,6.0365
2023-04-16T06:10:12.970Z,6.0438
2023-04-16T06:11:13.587Z,6.0252
2023-04-16T06:12:14.270Z,5.9831
2023-04-16T06:13:14.851Z,5.9840
2023-04-16T06:14:15.500Z,6.0068
2023-04-16T06:15:16.194Z,5.9873
2023-04-16T06:16:16.883Z,6.0082
2023-04-16T06:17:17.618Z,5.9839
2023-04-16T06:18:18.250Z,6.0387
2023-04-16T06:19:18.986Z,6.0875
2023-04-16T06:20:19.621Z,6.0807
2023-04-16T06:21:20.232Z,6.1140
2023-04-16T06:22:20.918Z,6.1297
2023-04-16T06:23:21.564Z,6.0417
2023-04-16T06:24:22.172Z,6.0137
2023-04-16T06:25:22.863Z,5.9780
2023-04-16T06:26:23.482Z,5.9689
2023-04-16T06:27:24.203Z,5.9734
2023-04-16T06:28:24.847Z,5.9940
2023-04-16T06:29:33.717Z,5.9680
2023-04-16T06:30:26.891Z,5.9553
2023-04-16T06:31:27.596Z,5.9610
2023-04-16T06:32:28.479Z,5.9558
2023-04-16T06:33:29.234Z,5.9662
2023-04-16T06:34:29.887Z,6.0135
2023-04-16T06:35:30.518Z,6.0075
2023-04-16T06:36:31.213Z,5.9993
2023-04-16T06:37:31.863Z,5.9931
2023-04-16T06:38:32.493Z,5.9801
2023-04-16T06:39:33.432Z,6.0044
2023-04-16T06:40:34.088Z,6.0310
2023-04-16T06:41:34.750Z,6.0063
2023-04-16T06:42:35.418Z,6.0246
2023-04-16T06:43:36.053Z,6.0315
2023-04-16T06:44:36.644Z,6.0344
2023-04-16T06:45:37.270Z,6.0589
2023-04-16T06:46:37.994Z,6.0576
2023-04-16T06:47:38.759Z,6.0920
2023-04-16T06:48:39.384Z,6.1063
2023-04-16T06:49:39.977Z,6.0883
2023-04-16T06:50:40.600Z,6.1288
2023-04-16T06:51:41.207Z,6.1424
2023-04-16T06:52:41.952Z,6.1153
2023-04-16T06:53:42.584Z,6.1144
2023-04-16T06:54:43.345Z,6.0851
2023-04-16T06:55:43.993Z,6.1035
2023-04-16T06:56:44.750Z,6.1260
2023-04-16T06:57:45.475Z,6.0938
2023-04-16T06:58:46.162Z,6.0887
2023-04-16T06:59:46.834Z,6.1259
2023-04-16T07:00:47.693Z,6.0973
2023-04-16T07:01:48.534Z,6.1156
2023-04-16T07:02:49.391Z,6.1185
2023-04-16T07:03:50.322Z,6.0754
2023-04-16T07:04:51.513Z,6.0488
2023-04-16T07:05:52.174Z,6.1000
2023-04-16T07:06:52.899Z,6.0805
2023-04-16T07:07:53.635Z,6.1435
2023-04-16T07:08:54.384Z,6.1259
2023-04-16T07:09:55.087Z,6.0451
2023-04-16T07:10:55.823Z,5.9906
2023-04-16T07:11:56.609Z,6.0525
2023-04-16T07:12:57.399Z,6.0800
2023-04-16T07:13:58.088Z,6.0166
2023-04-16T07:14:58.761Z,6.0309
2023-04-16T07:15:59.461Z,6.0358
2023-04-16T07:17:00.129Z,5.9609
2023-04-16T07:18:00.855Z,5.9362
2023-04-16T07:19:01.576Z,5.9355
2023-04-16T07:20:02.210Z,5.9278
2023-04-16T07:21:02.897Z,5.9437
2023-04-16T07:22:03.835Z,5.9160
2023-04-16T07:23:04.539Z,5.9132
2023-04-16T07:24:05.256Z,5.9077
2023-04-16T07:25:05.865Z,5.8687
2023-04-16T07:26:06.473Z,5.8973
2023-04-16T07:27:07.135Z,5.9118
2023-04-16T07:28:07.827Z,5.9171
2023-04-16T07:29:08.800Z,5.9120
2023-04-16T07:30:09.791Z,5.8706
2023-04-16T07:31:10.452Z,5.9155
2023-04-16T07:32:12.445Z,5.9636
2023-04-16T07:33:12.153Z,5.9782
2023-04-16T07:34:12.933Z,5.9550
2023-04-16T07:35:13.593Z,5.9186
2023-04-16T07:36:14.259Z,5.8977
2023-04-16T07:37:14.927Z,5.9126
2023-04-16T07:38:15.714Z,5.8850
2023-04-16T07:39:16.438Z,5.8700
2023-04-16T07:40:17.175Z,5.8416
2023-04-16T07:41:17.872Z,5.8446
2023-04-16T07:42:18.550Z,5.8398
2023-04-16T07:43:19.357Z,5.8468
2023-04-16T07:44:20.088Z,5.8661
2023-04-16T07:45:20.774Z,5.8784
2023-04-16T07:46:21.853Z,5.8645
2023-04-16T07:47:22.885Z,5.8166
2023-04-16T07:48:23.674Z,5.8609
2023-04-16T07:49:24.390Z,5.9107
2023-04-16T07:50:25.083Z,5.8460
2023-04-16T07:51:25.799Z,5.8616
2023-04-16T07:52:26.418Z,5.9303
2023-04-16T07:53:27.184Z,5.8961
2023-04-16T07:54:29.084Z,5.9018
2023-04-16T07:55:30.063Z,5.8723
2023-04-16T07:56:30.797Z,5.9091
2023-04-16T07:57:31.492Z,5.8723
2023-04-16T07:58:32.283Z,5.8784
2023-04-16T07:59:32.996Z,5.9243
2023-04-16T08:00:33.707Z,5.9235
2023-04-16T08:01:34.403Z,5.9580
2023-04-16T08:02:35.118Z,5.9891
2023-04-16T08:03:36.348Z,5.9611
2023-04-16T08:04:37.256Z,5.9231
2023-04-16T08:05:38.280Z,5.9448
2023-04-16T08:06:39.039Z,5.9624
2023-04-16T08:07:39.696Z,5.9179
2023-04-16T08:08:40.349Z,5.8504
2023-04-16T08:09:41.115Z,5.7854
2023-04-16T08:10:41.719Z,5.8218
2023-04-16T08:11:42.366Z,5.8438
2023-04-16T08:12:42.994Z,5.8222
2023-04-16T08:13:43.650Z,5.8962
2023-04-16T08:14:44.323Z,5.9161
2023-04-16T08:15:45.136Z,5.9414
2023-04-16T08:16:45.944Z,5.9654
2023-04-16T08:17:46.636Z,5.9857
2023-04-16T08:18:47.369Z,6.0487
2023-04-16T08:19:48.095Z,6.0065
2023-04-16T08:20:48.758Z,5.9989
2023-04-16T08:21:49.630Z,5.9765
2023-04-16T08:22:50.439Z,5.9870
2023-04-16T08:23:51.085Z,5.9898
2023-04-16T08:24:51.763Z,5.9809
2023-04-16T08:25:53.112Z,5.9643
2023-04-16T08:26:53.857Z,5.9746
2023-04-16T08:27:54.600Z,6.0454
2023-04-16T08:28:55.232Z,6.0772
2023-04-16T08:29:55.927Z,6.1438
2023-04-16T08:30:56.624Z,6.0926
2023-04-16T08:31:57.304Z,6.1079
2023-04-16T08:32:58.001Z,6.1577
2023-04-16T08:33:58.722Z,6.1570
2023-04-16T08:34:59.442Z,6.0725
2023-04-16T08:36:00.116Z,6.0799
2023-04-16T08:37:00.761Z,6.1198
2023-04-16T08:38:02.598Z,6.0966
2023-04-16T08:39:03.443Z,6.1059
2023-04-16T08:40:04.161Z,6.0461
2023-04-16T08:41:04.802Z,6.1101
2023-04-16T08:42:05.439Z,6.1911
2023-04-16T08:43:06.055Z,6.0613
2023-04-16T08:44:06.838Z,6.0783
2023-04-16T08:45:07.444Z,6.0549
2023-04-16T08:46:08.160Z,6.1003
2023-04-16T08:47:08.882Z,6.2034
2023-04-16T08:48:09.807Z,6.2570
2023-04-16T08:49:10.700Z,6.1746
2023-04-16T08:50:11.681Z,6.1240
2023-04-16T08:51:12.336Z,6.1508
2023-04-16T08:52:13.047Z,6.1272
2023-04-16T08:53:13.699Z,6.0789
2023-04-16T08:54:14.378Z,6.0253
2023-04-16T08:55:15.090Z,6.1187
2023-04-16T08:56:15.813Z,6.0631
2023-04-16T08:57:16.484Z,6.1173
2023-04-16T08:58:17.145Z,5.9912
2023-04-16T08:59:17.798Z,6.0259
2023-04-16T09:00:18.497Z,6.0517
2023-04-16T09:01:19.347Z,6.1605
2023-04-16T09:02:20.131Z,6.1376
2023-04-16T09:03:21.197Z,6.1685
2023-04-16T09:04:22.018Z,6.0681
2023-04-16T09:05:22.789Z,6.0778
2023-04-16T09:06:23.443Z,6.1159
2023-04-16T09:07:24.266Z,6.1658
2023-04-16T09:08:24.967Z,6.1051
2023-04-16T09:09:25.654Z,6.1657
2023-04-16T09:10:26.576Z,6.1782
2023-04-16T09:11:27.194Z,6.2141
2023-04-16T09:12:27.877Z,6.1396
2023-04-16T09:13:28.515Z,6.1286
2023-04-16T09:14:29.317Z,6.0850
2023-04-16T09:15:29.970Z,6.1056
2023-04-16T09:16:30.784Z,6.2348
2023-04-16T09:17:31.450Z,6.1915
2023-04-16T09:18:32.063Z,6.2884
2023-04-16T09:19:32.728Z,6.3502
2023-04-16T09:20:33.351Z,6.2574
2023-04-16T09:21:33.987Z,6.2851
2023-04-16T09:22:34.641Z,6.2464
2023-04-16T09:23:35.330Z,6.3180
2023-04-16T09:24:35.941Z,6.2722
2023-04-16T09:25:36.926Z,6.2978
2023-04-16T09:26:37.562Z,6.2709
2023-04-16T09:27:38.256Z,6.2754
2023-04-16T09:28:38.904Z,6.2442
2023-04-16T09:29:39.600Z,6.1731
2023-04-16T09:30:40.313Z,6.1794
2023-04-16T09:31:40.994Z,6.2570
2023-04-16T09:32:41.798Z,6.3168
2023-04-16T09:33:42.450Z,6.2845
2023-04-16T09:34:43.236Z,6.3301
2023-04-16T09:35:43.956Z,6.4189
2023-04-16T09:36:44.628Z,6.4055
2023-04-16T09:37:45.284Z,6.3217
2023-04-16T09:38:45.986Z,6.2759
2023-04-16T09:39:46.646Z,6.2387
2023-04-16T09:40:47.401Z,6.3083
2023-04-16T09:41:48.224Z,6.2716
2023-04-16T09:42:49.222Z,6.2856
2023-04-16T09:43:49.823Z,6.3197
2023-04-16T09:44:50.454Z,6.3140
2023-04-16T09:45:51.260Z,6.2956
2023-04-16T09:46:51.965Z,6.3854
2023-04-16T09:47:52.739Z,6.3371
2023-04-16T09:48:53.414Z,6.2595
2023-04-16T09:49:54.923Z,6.3107
2023-04-16T09:50:55.580Z,6.3554
2023-04-16T09:51:56.275Z,6.3911
2023-04-16T09:52:56.926Z,6.3876
2023-04-16T09:53:57.614Z,6.3981
2023-04-16T09:54:58.278Z,6.4046
2023-04-16T09:55:59.062Z,6.3161
2023-04-16T09:56:59.795Z,6.3161
2023-04-16T09:58:00.503Z,6.3044
2023-04-16T09:59:01.177Z,6.3392
2023-04-16T10:00:01.816Z,6.3199
2023-04-16T10:01:02.592Z,6.3313
2023-04-16T10:02:14.600Z,6.3121
2023-04-16T10:03:04.794Z,6.3352
2023-04-16T10:04:05.655Z,6.3302
2023-04-16T10:05:06.499Z,6.3415
2023-04-16T10:06:07.171Z,6.3522
2023-04-16T10:07:07.858Z,6.4088
2023-04-16T10:08:08.546Z,6.5059
2023-04-16T10:09:09.452Z,6.5160
2023-04-16T10:10:10.510Z,6.5131
2023-04-16T10:11:11.206Z,6.4677
2023-04-16T10:12:12.063Z,6.4648
2023-04-16T10:13:12.863Z,6.5426
2023-04-16T10:14:13.617Z,6.5875
2023-04-16T10:15:14.387Z,6.5469
2023-04-16T10:16:15.181Z,6.6006
2023-04-16T10:17:15.846Z,6.6891
2023-04-16T10:18:16.521Z,6.6450
2023-04-16T10:19:17.121Z,6.5725
2023-04-16T10:20:17.792Z,6.6057
2023-04-16T10:21:18.538Z,6.5195
2023-04-16T10:22:19.168Z,6.5387
2023-04-16T10:23:19.743Z,6.6053
2023-04-16T10:24:20.359Z,6.5573
2023-04-16T10:25:21.016Z,6.6548
2023-04-16T10:26:21.677Z,6.6083
2023-04-16T10:27:22.326Z,6.6746
2023-04-16T10:28:23.114Z,6.6976
2023-04-16T10:29:23.797Z,6.7468
2023-04-16T10:30:24.519Z,6.8169
2023-04-16T10:31:25.233Z,6.7730
2023-04-16T10:32:26.180Z,6.6818
2023-04-16T10:33:26.894Z,6.7511
2023-04-16T10:34:27.545Z,6.8088
2023-04-16T10:35:28.225Z,6.8097
2023-04-16T10:36:28.999Z,6.7988
2023-04-16T10:37:29.625Z,6.8482
2023-04-16T10:38:30.339Z,6.8622
2023-04-16T10:39:30.992Z,6.9069
2023-04-16T10:40:31.640Z,6.9435
2023-04-16T10:41:32.363Z,7.0148
2023-04-16T10:42:33.063Z,7.0348
2023-04-16T10:43:33.753Z,6.9951
2023-04-16T10:44:34.370Z,7.0545
2023-04-16T10:45:35.233Z,7.0884
2023-04-16T10:46:35.992Z,7.1100
2023-04-16T10:47:36.664Z,7.1148
2023-04-16T10:48:48.660Z,7.1439
2023-04-16T10:49:38.712Z,7.1197
2023-04-16T10:50:39.587Z,7.1484
2023-04-16T10:51:40.370Z,7.1194
2023-04-16T10:52:41.074Z,7.1671
2023-04-16T10:53:41.732Z,7.2333
2023-04-16T10:54:42.398Z,7.2358
2023-04-16T10:55:42.998Z,7.2647
2023-04-16T10:56:43.689Z,7.1521
2023-04-16T10:57:44.378Z,7.0819
2023-04-16T10:58:45.019Z,7.0957
2023-04-16T10:59:45.663Z,7.1450
2023-04-16T11:00:46.340Z,7.2049
2023-04-16T11:01:47.041Z,7.1709
2023-04-16T11:02:47.833Z,7.1902
2023-04-16T11:03:48.617Z,7.1574
2023-04-16T11:04:50.007Z,7.1126
2023-04-16T11:05:50.842Z,7.2220
2023-04-16T11:06:51.532Z,7.0893
2023-04-16T11:07:52.506Z,7.0187
2023-04-16T11:08:54.915Z,6.9626
2023-04-16T11:09:53.814Z,7.0726
2023-04-16T11:10:54.487Z,7.1312
2023-04-16T11:11:55.181Z,7.0596
2023-04-16T11:12:55.857Z,7.0758
2023-04-16T11:13:56.530Z,7.0685
2023-04-16T11:14:57.198Z,7.0840
2023-04-16T11:15:57.861Z,7.1507
2023-04-16T11:16:58.499Z,7.1377
2023-04-16T11:17:59.176Z,7.0321
2023-04-16T11:18:59.810Z,7.1059
2023-04-16T11:20:00.545Z,7.1534
2023-04-16T11:21:01.275Z,7.1916
2023-04-16T11:22:01.898Z,7.3474
2023-04-16T11:23:02.579Z,7.3742
2023-04-16T11:24:03.133Z,7.2132
2023-04-16T11:25:03.778Z,7.1711
2023-04-16T11:26:04.426Z,7.1852
2023-04-16T11:27:05.176Z,7.0619
2023-04-16T11:28:05.828Z,7.1353
2023-04-16T11:29:06.516Z,7.1176
2023-04-16T11:30:07.174Z,6.9986
2023-04-16T11:31:07.861Z,7.0045
2023-04-16T11:32:08.545Z,7.0296
2023-04-16T11:33:09.245Z,7.0072
2023-04-16T11:34:09.900Z,7.0236
2023-04-16T11:35:10.547Z,7.0819
2023-04-16T11:36:11.139Z,7.0908
2023-04-16T11:37:11.885Z,7.1288
2023-04-16T11:38:12.555Z,7.1333
2023-04-16T11:39:13.229Z,7.0585
2023-04-16T11:40:14.020Z,6.9391
2023-04-16T11:41:14.680Z,6.9406
2023-04-16T11:42:15.436Z,6.9822
2023-04-16T11:43:16.179Z,7.0028
2023-04-16T11:44:16.829Z,7.0545
2023-04-16T11:45:17.902Z,6.9870
2023-04-16T11:46:27.398Z,6.9199
2023-04-16T11:47:20.271Z,6.9207
2023-04-16T11:48:21.031Z,6.9841
2023-04-16T11:49:21.740Z,6.9819
2023-04-16T11:50:22.757Z,7.0260
2023-04-16T11:51:23.810Z,7.0878
2023-04-16T11:52:24.991Z,7.0548
2023-04-16T11:53:25.752Z,7.1047
2023-04-16T11:54:26.455Z,7.1109
2023-04-16T11:55:27.178Z,7.0826
2023-04-16T11:56:27.850Z,7.1419
2023-04-16T11:57:28.549Z,7.1632
2023-04-16T11:58:29.263Z,7.1736
2023-04-16T11:59:29.970Z,7.2610
2023-04-16T12:00:30.665Z,7.3113
2023-04-16T12:01:31.408Z,7.3256
2023-04-16T12:02:32.313Z,7.3627
2023-04-16T12:03:33.348Z,7.4182
2023-04-16T12:04:34.204Z,7.3985
2023-04-16T12:05:34.954Z,7.4497
2023-04-16T12:06:35.695Z,7.4254
2023-04-16T12:07:36.494Z,7.4197
2023-04-16T12:08:37.272Z,7.4450
2023-04-16T12:09:40.569Z,7.4785
2023-04-16T12:10:39.048Z,7.5034
2023-04-16T12:11:39.747Z,7.5517
2023-04-16T12:12:40.480Z,7.5456
2023-04-16T12:13:41.218Z,7.4211
2023-04-16T12:14:41.946Z,7.4417
2023-04-16T12:15:42.631Z,7.4814
2023-04-16T12:16:43.371Z,7.5810
2023-04-16T12:17:45.263Z,7.6135
2023-04-16T12:18:45.924Z,7.6886
2023-04-16T12:19:46.674Z,7.6299
2023-04-16T12:20:47.436Z,7.5969
2023-04-16T12:21:48.250Z,7.6153
2023-04-16T12:22:49.006Z,7.5250
2023-04-16T12:23:49.748Z,7.5098
2023-04-16T12:24:50.495Z,7.4258
2023-04-16T12:25:51.173Z,7.4111
2023-04-16T12:26:51.928Z,7.4556
2023-04-16T12:27:54.009Z,7.3809
2023-04-16T12:28:54.999Z,7.3549
2023-04-16T12:29:55.709Z,7.3144
2023-04-16T12:30:56.539Z,7.2634
2023-04-16T12:31:57.277Z,7.3207
2023-04-16T12:32:59.166Z,7.3452
2023-04-16T12:33:59.870Z,7.3574
2023-04-16T12:35:00.556Z,7.2673
2023-04-16T12:36:01.239Z,7.2448
2023-04-16T12:37:02.802Z,7.2424